createdAt,value
2019-02-16T00:04:36.296Z,6.3
2019-02-16T00:09:42.475Z,6.6
2019-02-16T00:14:48.666Z,5.6
2019-02-16T00:19:53.756Z,8.1
2019-02-16T00:24:59.381Z,5.7
2019-02-16T00:30:05.249Z,6.2
2019-02-16T00:35:10.882Z,7.1
2019-02-16T00:40:16.558Z,5.1
2019-02-16T00:45:22.310Z,6.2
2019-02-16T00:50:27.531Z,5.6
2019-02-16T00:55:33.613Z,5.1
2019-02-16T01:00:38.670Z,5
2019-02-16T01:05:43.812Z,5.4
2019-02-16T01:10:49.326Z,6
2019-02-16T01:15:55.490Z,5.5
2019-02-16T01:21:00.904Z,5
2019-02-16T01:26:06.030Z,4.9
2019-02-16T01:31:12.161Z,5
2019-02-16T01:36:17.677Z,4.2
2019-02-16T01:41:22.889Z,4.3
2019-02-16T01:46:28.649Z,5.8
2019-02-16T01:51:33.927Z,4.6
2019-02-16T01:56:39.024Z,5.1
2019-02-16T02:01:44.798Z,4
2019-02-16T02:06:49.976Z,4.3
2019-02-16T02:11:55.616Z,4.9
2019-02-16T02:17:00.905Z,4.4
2019-02-16T02:22:06.336Z,4.5
2019-02-16T02:27:12.401Z,4.1
2019-02-16T02:32:17.793Z,4.2
2019-02-16T02:37:23.510Z,4.1
2019-02-16T02:42:28.834Z,4.3
2019-02-16T02:47:34.370Z,4.7
2019-02-16T02:52:39.974Z,4.1
2019-02-16T02:57:45.406Z,4.4
2019-02-16T03:02:50.998Z,4.2
2019-02-16T03:07:56.133Z,4.6
2019-02-16T03:13:01.441Z,5.6
2019-02-16T03:18:06.587Z,4.2
2019-02-16T03:23:12.434Z,4.9
2019-02-16T03:28:18.557Z,4.3
2019-02-16T03:33:24.317Z,5.3
2019-02-16T03:38:29.634Z,4.2
2019-02-16T03:43:34.995Z,4.4
2019-02-16T03:48:40.361Z,4.6
2019-02-16T03:53:45.877Z,4.6
2019-02-16T03:58:51.548Z,5.3
2019-02-16T04:03:56.725Z,4.6
2019-02-16T04:09:02.182Z,4.3
2019-02-16T04:14:08.409Z,4.3
2019-02-16T04:19:14.717Z,4.1
2019-02-16T04:24:19.726Z,4.2
2019-02-16T04:29:24.953Z,3.8
2019-02-16T04:34:30.157Z,4.5
2019-02-16T04:39:35.945Z,3.9
2019-02-16T04:44:41.150Z,3.7
2019-02-16T04:49:46.502Z,4
2019-02-16T04:54:51.621Z,4.4
2019-02-16T04:59:57.109Z,3.9
2019-02-16T05:05:03.398Z,4.1
2019-02-16T05:10:08.625Z,5.2
2019-02-16T05:15:13.687Z,4.3
2019-02-16T05:20:19.167Z,4.5
2019-02-16T05:25:24.887Z,4
2019-02-16T05:30:30.503Z,3.8
2019-02-16T05:35:36.336Z,3.9
2019-02-16T05:40:41.459Z,5.7
2019-02-16T05:45:47.087Z,3.5
2019-02-16T05:50:52.909Z,3.9
2019-02-16T05:55:58.325Z,2.9
2019-02-16T06:01:03.928Z,3.5
2019-02-16T06:06:08.989Z,5
2019-02-16T06:11:15.241Z,3.5
2019-02-16T06:16:19.226Z,3.5
2019-02-16T06:21:24.544Z,6
2019-02-16T06:26:30.079Z,9.3
2019-02-16T06:31:36.181Z,26.3
2019-02-16T06:36:41.505Z,25.8
2019-02-16T06:41:46.722Z,27.3
2019-02-16T06:46:51.757Z,27.4
2019-02-16T06:51:57.994Z,26.2
2019-02-16T06:57:03.159Z,20.7
2019-02-16T07:02:08.379Z,21.5
2019-02-16T07:07:13.766Z,21.7
2019-02-16T07:12:19.040Z,25.3
2019-02-16T07:17:24.143Z,23.6
2019-02-16T07:22:29.360Z,54.5
2019-02-16T07:27:35.344Z,52.3
2019-02-16T07:32:40.696Z,46
2019-02-16T07:37:45.798Z,46.2
2019-02-16T07:42:51.504Z,46.1
2019-02-16T07:47:56.726Z,37.1
2019-02-16T07:53:02.238Z,37.2
2019-02-16T07:58:08.378Z,34.5
2019-02-16T08:03:14.633Z,30.9
2019-02-16T08:08:20.302Z,32.6
2019-02-16T08:13:26.270Z,31
2019-02-16T08:18:29.989Z,24.6
2019-02-16T08:23:40.284Z,24.8
2019-02-16T08:28:35.873Z,24.3
2019-02-16T08:33:41.921Z,24.4
2019-02-16T08:38:47.330Z,25.3
2019-02-16T08:43:52.578Z,21.5
2019-02-16T08:48:57.593Z,22.4
2019-02-16T08:54:03.094Z,21.4
2019-02-16T08:59:08.696Z,22.8
2019-02-16T09:04:13.885Z,20.8
2019-02-16T09:09:19.057Z,19.7
2019-02-16T09:14:24.716Z,19.4
2019-02-16T09:19:30.478Z,20.6
2019-02-16T09:24:34.176Z,20.2
2019-02-16T09:29:39.668Z,19.5
2019-02-16T09:34:46.100Z,20.5
2019-02-16T09:39:51.354Z,19.9
2019-02-16T09:44:55.648Z,17.5
2019-02-16T09:50:00.054Z,18.1
2019-02-16T09:55:05.354Z,16.7
2019-02-16T10:00:11.169Z,15.6
2019-02-16T10:05:19.134Z,18.6
2019-02-16T10:10:25.201Z,17.4
2019-02-16T10:15:31.332Z,15.2
2019-02-16T10:20:37.098Z,15.4
2019-02-16T10:25:44.149Z,17.1
2019-02-16T10:30:49.881Z,16
2019-02-16T10:35:55.654Z,16.6
2019-02-16T10:41:01.659Z,16.2
2019-02-16T10:46:07.370Z,16.6
2019-02-16T10:51:13.078Z,14.7
2019-02-16T10:56:18.629Z,14.8
2019-02-16T11:01:23.972Z,13
2019-02-16T11:06:30.015Z,14.1
2019-02-16T11:11:35.159Z,14.1
2019-02-16T11:16:40.795Z,15.3
2019-02-16T11:21:45.850Z,13.5
2019-02-16T11:26:51.913Z,12.6
2019-02-16T11:31:58.122Z,15.2
2019-02-16T11:37:03.337Z,12.9
2019-02-16T11:42:08.541Z,11.7
2019-02-16T11:47:14.936Z,13.6
2019-02-16T11:52:20.657Z,12.2
2019-02-16T11:57:25.878Z,12.1
2019-02-16T12:02:39.390Z,11.8
2019-02-16T12:07:35.892Z,11.6
2019-02-16T12:12:41.873Z,11
2019-02-16T12:17:48.252Z,11.1
2019-02-16T12:22:53.454Z,11.2
2019-02-16T12:27:59.324Z,11.6
2019-02-16T12:33:04.555Z,11.2
2019-02-16T12:38:10.437Z,12.1
2019-02-16T12:43:16.222Z,11.1
2019-02-16T12:48:22.013Z,10.5
2019-02-16T12:53:27.485Z,9.2
2019-02-16T12:58:33.281Z,10.4
2019-02-16T13:03:39.052Z,11.3
2019-02-16T13:08:44.515Z,10.1
2019-02-16T13:13:49.995Z,10.7
2019-02-16T13:18:56.111Z,9.5
2019-02-16T13:24:01.556Z,10.2
2019-02-16T13:29:07.457Z,10.9
2019-02-16T13:34:11.769Z,10.5
2019-02-16T13:39:17.733Z,9
2019-02-16T13:44:23.214Z,9.9
2019-02-16T13:49:28.254Z,8.9
2019-02-16T13:54:33.620Z,9.3
2019-02-16T13:59:39.401Z,10
2019-02-16T14:04:45.232Z,26.6
2019-02-16T14:09:50.921Z,28.4
2019-02-16T14:14:52.089Z,21.5
2019-02-16T14:19:57.209Z,23.4
2019-02-16T14:25:02.948Z,24.5
2019-02-16T14:30:07.634Z,18.4
2019-02-16T14:35:13.015Z,19.7
2019-02-16T14:40:19.260Z,19
2019-02-16T14:45:24.941Z,20.4
2019-02-16T14:50:30.540Z,20.4
2019-02-16T14:55:36.036Z,18.6
2019-02-16T15:00:42.274Z,23
2019-02-16T15:05:47.342Z,17.8
2019-02-16T15:10:53.218Z,17.6
2019-02-16T15:15:57.097Z,17.1
2019-02-16T15:21:02.700Z,17.4
2019-02-16T15:26:08.590Z,18.7
2019-02-16T15:31:14.767Z,17.7
2019-02-16T15:36:23.855Z,18.9
2019-02-16T15:41:30.713Z,18.5
2019-02-16T15:46:36.090Z,19.5
2019-02-16T15:51:41.373Z,15.4
2019-02-16T15:56:51.076Z,21.7
2019-02-16T16:01:56.995Z,12.9
2019-02-16T16:07:03.434Z,12.8
2019-02-16T16:12:09.548Z,16.2
2019-02-16T16:17:14.936Z,16.1
2019-02-16T16:22:20.773Z,23.8
2019-02-16T16:27:24.993Z,20.4
2019-02-16T16:32:30.576Z,16
2019-02-16T16:37:35.310Z,13.8
2019-02-16T16:42:40.918Z,16.7
2019-02-16T16:47:50.761Z,15.9
2019-02-16T16:52:56.631Z,21.1
2019-02-16T16:58:01.768Z,14.6
2019-02-16T17:03:07.306Z,18.1
2019-02-16T17:08:13.476Z,16.8
2019-02-16T17:13:19.632Z,18.3
2019-02-16T17:18:25.266Z,22.2
2019-02-16T17:23:30.877Z,21.3
2019-02-16T17:28:36.178Z,19.5
2019-02-16T17:33:42.010Z,11.7
2019-02-16T17:38:48.161Z,14.9
2019-02-16T17:43:54.674Z,16.2
2019-02-16T17:49:00.255Z,13.9
2019-02-16T17:54:08.336Z,14.5
2019-02-16T17:59:14.522Z,16.9
2019-02-16T18:04:20.328Z,15.3
2019-02-16T18:09:25.403Z,15.9
2019-02-16T18:14:31.356Z,13.4
2019-02-16T18:19:37.231Z,17
2019-02-16T18:24:43.077Z,15.9
2019-02-16T18:29:48.923Z,11.3
2019-02-16T18:34:54.646Z,12.9
2019-02-16T18:40:00.875Z,12.6
2019-02-16T18:45:07.106Z,15.5
2019-02-16T18:50:13.173Z,13.8
2019-02-16T18:55:16.448Z,59.6
2019-02-16T19:00:25.672Z,74.9
2019-02-16T19:05:31.668Z,73.2
2019-02-16T19:10:37.176Z,60.9
2019-02-16T19:15:43.067Z,53.2
2019-02-16T19:20:49.193Z,50.9
2019-02-16T19:25:54.800Z,47.3
2019-02-16T19:31:00.800Z,33.7
2019-02-16T19:36:06.153Z,25.7
2019-02-16T19:41:10.537Z,21.3
2019-02-16T19:46:16.257Z,19
2019-02-16T19:51:21.389Z,15.9
2019-02-16T19:56:27.182Z,12
2019-02-16T20:06:49.426Z,10.9
2019-02-16T20:13:25.769Z,11.7
2019-02-16T20:16:50.933Z,8.5
2019-02-16T20:21:56.360Z,8.4
2019-02-16T20:27:02.145Z,7.2
2019-02-16T20:32:07.800Z,7.8
2019-02-16T20:37:12.849Z,8.4
2019-02-16T20:42:18.707Z,9.3
2019-02-16T20:47:24.511Z,7.8
2019-02-16T20:52:30.334Z,7.3
2019-02-16T20:57:35.857Z,6.6
2019-02-16T21:02:42.005Z,6.6
2019-02-16T21:07:47.330Z,7.8
2019-02-16T21:12:51.782Z,13.2
2019-02-16T21:17:57.610Z,10.9
2019-02-16T21:23:03.337Z,10.3
2019-02-16T21:28:08.919Z,11.9
2019-02-16T21:33:14.692Z,10.5
2019-02-16T21:38:20.225Z,9.4
2019-02-16T21:43:26.307Z,13.9
2019-02-16T21:48:31.526Z,12.2
2019-02-16T21:53:37.454Z,10.1
2019-02-16T21:58:41.536Z,10.7
2019-02-16T22:03:47.272Z,9.5
2019-02-16T22:08:52.540Z,11
2019-02-16T22:13:58.460Z,9.5
2019-02-16T22:19:03.567Z,13.8
2019-02-16T22:24:09.004Z,11.1
2019-02-16T22:29:14.484Z,11.1
2019-02-16T22:34:20.604Z,11.5
2019-02-16T22:39:26.024Z,10.7
2019-02-16T22:44:32.147Z,11.1
2019-02-16T22:49:37.242Z,12.3
2019-02-16T22:54:42.318Z,13.2
2019-02-16T22:59:48.384Z,14.2
2019-02-16T23:04:53.427Z,12.6
2019-02-16T23:09:58.661Z,11.8
2019-02-16T23:15:04.638Z,12.3
2019-02-16T23:20:10.228Z,13.3
2019-02-16T23:25:15.990Z,13.7
2019-02-16T23:30:21.023Z,13.1
2019-02-16T23:35:26.844Z,12.1
2019-02-16T23:40:31.880Z,12
2019-02-16T23:45:37.147Z,12.1
2019-02-16T23:50:42.202Z,12.5
2019-02-16T23:55:47.375Z,13.4
